Time;durP1;ratioP1;P1;durP2;ratioP2;P2;SDS_P1;SDS_P2;PMS_P1;PMS_P2;Temp;Humidity;BMP_temperature;BMP_pressure;BME280_temperature;BME280_humidity;BME280_pressure;Samples;Min_cycle;Max_cycle;Signal;HPM_P1;HPM_P2
2023/10/28 00:00:33;;;;;;;5.87;2.20;;;;;;;8.26;100.00;95816.44;5027222;28;20438;-82
2023/10/28 00:02:59;;;;;;;2.70;1.67;;;;;;;8.25;100.00;95818.31;5028286;28;20408;-83
2023/10/28 00:05:26;;;;;;;4.63;2.05;;;;;;;8.21;100.00;95827.00;5026077;28;20474;-83
2023/10/28 00:07:52;;;;;;;4.43;2.00;;;;;;;8.21;100.00;95816.47;5021929;28;20858;-83
2023/10/28 00:10:21;;;;;;;2.40;1.60;;;;;;;8.19;100.00;95832.56;5026783;28;20405;-82
2023/10/28 00:12:47;;;;;;;2.33;1.88;;;;;;;8.18;100.00;95831.00;5022108;28;20413;-81
2023/10/28 00:15:13;;;;;;;3.60;2.10;;;;;;;8.17;100.00;95832.06;5021083;28;20408;-83
2023/10/28 00:17:40;;;;;;;4.43;2.00;;;;;;;8.18;100.00;95836.28;5021952;28;20473;-83
2023/10/28 00:20:08;;;;;;;5.20;2.10;;;;;;;8.18;100.00;95838.13;5020976;28;20892;-82
2023/10/28 00:22:36;;;;;;;3.67;2.10;;;;;;;8.16;100.00;95847.09;5020798;28;20400;-82
2023/10/28 00:25:02;;;;;;;3.75;2.05;;;;;;;8.14;100.00;95836.00;5020812;28;20409;-82
2023/10/28 00:27:28;;;;;;;5.18;2.13;;;;;;;8.10;100.00;95832.38;5019681;28;20409;-83
2023/10/28 00:29:54;;;;;;;4.25;2.20;;;;;;;8.06;100.00;95836.59;5020252;28;20396;-83
2023/10/28 00:32:22;;;;;;;6.25;2.20;;;;;;;8.05;100.00;95837.66;5024992;28;20514;-83
2023/10/28 00:34:48;;;;;;;3.97;2.05;;;;;;;8.07;100.00;95842.66;5041245;28;20403;-82
2023/10/28 00:37:15;;;;;;;2.95;2.13;;;;;;;8.04;100.00;95830.03;5040751;28;20763;-83
2023/10/28 00:39:43;;;;;;;3.60;2.30;;;;;;;8.01;100.00;95834.00;5040657;28;20387;-83
2023/10/28 00:42:17;;;;;;;2.95;1.90;;;;;;;7.98;100.00;95839.00;5045654;28;20395;-79
2023/10/28 00:44:43;;;;;;;7.27;2.27;;;;;;;7.94;100.00;95844.03;5009313;28;20412;-78
2023/10/28 00:47:09;;;;;;;3.50;2.00;;;;;;;7.93;100.00;95844.31;5021104;28;20416;-83
2023/10/28 00:49:36;;;;;;;5.05;2.08;;;;;;;7.88;100.00;95845.13;5020603;28;20451;-83
2023/10/28 00:52:03;;;;;;;3.63;2.22;;;;;;;7.86;100.00;95844.59;5020181;28;20516;-82
2023/10/28 00:54:30;;;;;;;2.93;2.00;;;;;;;7.88;100.00;95852.25;5020653;28;20393;-84
2023/10/28 00:56:58;;;;;;;6.43;2.22;;;;;;;7.86;100.00;95847.25;5021212;28;20407;-83
2023/10/28 00:59:27;;;;;;;4.00;2.00;;;;;;;7.91;100.00;95859.59;5021541;28;20420;-83
2023/10/28 01:01:53;;;;;;;3.90;2.00;;;;;;;7.90;100.00;95853.53;5020235;28;20413;-83
2023/10/28 01:04:20;;;;;;;2.70;1.80;;;;;;;7.91;100.00;95854.31;5021001;28;20451;-83
2023/10/28 01:06:47;;;;;;;5.03;2.10;;;;;;;7.91;100.00;95855.13;5021096;28;20401;-83
2023/10/28 01:09:13;;;;;;;4.38;2.47;;;;;;;7.89;100.00;95857.25;5021224;28;20400;-84
2023/10/28 01:11:39;;;;;;;6.32;2.63;;;;;;;7.87;100.00;95848.03;5022965;28;20459;-83
2023/10/28 01:14:07;;;;;;;4.03;2.40;;;;;;;7.89;100.00;95854.63;5019781;28;20409;-82
2023/10/28 01:16:33;;;;;;;6.53;2.58;;;;;;;7.88;100.00;95852.25;5020114;28;20401;-82
2023/10/28 01:19:00;;;;;;;5.60;2.35;;;;;;;7.89;100.00;95854.63;5020325;28;20397;-84
2023/10/28 01:21:27;;;;;;;5.22;2.40;;;;;;;7.89;100.00;95857.25;5020749;28;20754;-84
2023/10/28 01:23:55;;;;;;;6.05;2.50;;;;;;;7.87;100.00;95856.72;5019267;28;20393;-82
2023/10/28 01:26:22;;;;;;;8.55;2.78;;;;;;;7.85;100.00;95865.94;5019952;28;20826;-82
2023/10/28 01:28:48;;;;;;;6.60;2.42;;;;;;;7.86;100.00;95862.25;5024106;28;20493;-83
2023/10/28 01:31:17;;;;;;;6.13;2.42;;;;;;;7.82;100.00;95856.72;5022533;28;20408;-83
2023/10/28 01:33:43;;;;;;;6.38;2.33;;;;;;;7.85;100.00;95860.69;5035780;28;21059;-83
2023/10/28 01:36:09;;;;;;;5.13;2.40;;;;;;;7.88;100.00;95862.78;5039536;28;20755;-83
2023/10/28 01:38:37;;;;;;;7.00;2.45;;;;;;;7.87;100.00;95866.47;5038285;28;20749;-83
2023/10/28 01:41:03;;;;;;;4.50;2.30;;;;;;;7.86;100.00;95864.91;5039750;28;20398;-83
2023/10/28 01:43:30;;;;;;;4.20;2.03;;;;;;;7.85;100.00;95868.59;5041481;28;20434;-83
2023/10/28 01:45:56;;;;;;;5.47;2.60;;;;;;;7.85;100.00;95872.00;5040549;28;20834;-82
2023/10/28 01:48:22;;;;;;;7.03;2.30;;;;;;;7.83;100.00;95868.84;5022225;28;20438;-84
2023/10/28 01:50:49;;;;;;;4.38;2.45;;;;;;;7.84;100.00;95873.06;5040591;28;20771;-85
2023/10/28 01:53:15;;;;;;;4.93;2.33;;;;;;;7.82;100.00;95880.44;5040597;28;20922;-84
2023/10/28 01:55:44;;;;;;;4.05;2.40;;;;;;;7.82;100.00;95871.78;5040429;28;20402;-84
2023/10/28 01:58:10;;;;;;;6.50;2.53;;;;;;;7.78;100.00;95880.22;5044082;28;20448;-83
2023/10/28 02:00:36;;;;;;;5.82;2.65;;;;;;;7.75;100.00;95878.09;5046801;28;20394;-84
2023/10/28 02:03:03;;;;;;;2.67;2.00;;;;;;;7.78;100.00;95892.59;5043362;28;20467;-84
2023/10/28 02:05:29;;;;;;;10.23;2.65;;;;;;;7.76;100.00;95882.31;5044133;28;20391;-83
2023/10/28 02:07:55;;;;;;;3.42;2.22;;;;;;;7.82;100.00;95896.25;5039103;28;20402;-84
2023/10/28 02:10:21;;;;;;;4.43;2.03;;;;;;;7.83;100.00;95891.75;5038022;28;20890;-83
2023/10/28 02:12:48;;;;;;;2.22;1.80;;;;;;;7.83;100.00;95892.56;5038949;28;20430;-83
2023/10/28 02:15:15;;;;;;;2.75;2.00;;;;;;;7.83;100.00;95905.72;5038426;28;20415;-83
2023/10/28 02:17:41;;;;;;;5.07;2.28;;;;;;;7.81;100.00;95897.31;5038408;28;20403;-81
2023/10/28 02:20:10;;;;;;;7.93;2.80;;;;;;;7.75;100.00;95907.06;5040950;28;20402;-80
2023/10/28 02:22:36;;;;;;;6.32;2.58;;;;;;;7.72;100.00;95898.94;5038964;28;20434;-81
2023/10/28 02:25:03;;;;;;;5.50;2.40;;;;;;;7.71;100.00;95902.63;5038693;28;20399;-82
2023/10/28 02:27:30;;;;;;;6.00;2.47;;;;;;;7.69;100.00;95904.72;5038762;28;20461;-83
2023/10/28 02:29:57;;;;;;;3.13;1.95;;;;;;;7.66;100.00;95898.16;5038193;28;20414;-83
2023/10/28 02:32:23;;;;;;;4.32;2.28;;;;;;;7.63;100.00;95903.16;5038078;28;20522;-83
2023/10/28 02:34:49;;;;;;;4.47;2.40;;;;;;;7.60;100.00;95896.59;5038305;28;20903;-83
2023/10/28 02:37:16;;;;;;;6.10;2.20;;;;;;;7.55;100.00;95895.81;5037270;28;20494;-81
2023/10/28 02:39:42;;;;;;;7.77;2.70;;;;;;;7.55;100.00;95903.72;5037139;28;20399;-81
2023/10/28 02:42:08;;;;;;;9.38;2.97;;;;;;;7.54;100.00;95897.66;5037940;28;20445;-81
2023/10/28 02:44:35;;;;;;;10.20;3.25;;;;;;;7.53;100.00;95900.56;5038904;28;20403;-83
2023/10/28 02:47:03;;;;;;;5.83;2.93;;;;;;;7.53;100.00;95903.97;5021006;28;20415;-82
2023/10/28 02:49:30;;;;;;;13.60;3.92;;;;;;;7.48;100.00;95904.00;5038770;28;20875;-83
2023/10/28 02:51:56;;;;;;;12.60;3.42;;;;;;;7.49;100.00;95907.44;5039616;28;20748;-83
2023/10/28 02:54:22;;;;;;;8.68;3.30;;;;;;;7.51;100.00;95906.13;5039089;28;20403;-82
2023/10/28 02:56:48;;;;;;;6.18;2.88;;;;;;;7.53;100.00;95903.19;5039553;28;20399;-82
2023/10/28 02:59:15;;;;;;;5.05;2.45;;;;;;;7.52;100.00;95906.91;5039468;28;20391;-83
2023/10/28 03:01:41;;;;;;;8.35;2.88;;;;;;;7.51;100.00;95902.69;5038701;28;20395;-83
2023/10/28 03:04:09;;;;;;;5.60;2.75;;;;;;;7.51;100.00;95910.59;5022850;28;20419;-83
2023/10/28 03:06:35;;;;;;;4.07;2.08;;;;;;;7.52;100.00;95915.56;5037315;28;20395;-83
2023/10/28 03:09:01;;;;;;;4.85;2.22;;;;;;;7.52;100.00;95909.53;5037746;28;20407;-83
2023/10/28 03:11:28;;;;;;;6.03;2.58;;;;;;;7.50;100.00;95909.78;5037926;28;20430;-84
2023/10/28 03:13:54;;;;;;;7.25;2.67;;;;;;;7.50;100.00;95911.63;5038803;28;20426;-82
2023/10/28 03:16:20;;;;;;;4.25;2.30;;;;;;;7.45;100.00;95909.78;5039630;28;20907;-82
2023/10/28 03:18:46;;;;;;;4.95;2.30;;;;;;;7.41;100.00;95906.13;5039923;28;20412;-82
2023/10/28 03:21:15;;;;;;;4.15;2.22;;;;;;;7.39;100.00;95905.59;5035341;28;20809;-81
2023/10/28 03:23:41;;;;;;;8.07;2.63;;;;;;;7.35;100.00;95905.34;5017132;28;20403;-82
2023/10/28 03:26:07;;;;;;;4.82;2.20;;;;;;;7.32;100.00;95905.09;5035445;28;20466;-81
2023/10/28 03:28:33;;;;;;;4.30;2.30;;;;;;;7.28;100.00;95902.22;5038214;28;20513;-84
2023/10/28 03:31:05;;;;;;;6.40;2.83;;;;;;;7.27;100.00;95915.63;5036493;28;20399;-83
2023/10/28 03:33:31;;;;;;;8.23;2.88;;;;;;;7.29;100.00;95908.28;5022730;28;20421;-83
2023/10/28 03:35:57;;;;;;;6.25;2.88;;;;;;;7.33;100.00;95911.94;5017390;28;20397;-82
2023/10/28 03:38:25;;;;;;;9.30;3.17;;;;;;;7.35;100.00;95912.47;5017507;28;20781;-82
2023/10/28 03:40:51;;;;;;;9.80;2.53;;;;;;;7.38;100.00;95917.97;5017624;28;20424;-82
2023/10/28 03:43:17;;;;;;;6.88;3.10;;;;;;;7.42;100.00;95914.81;5016696;28;20447;-82
2023/10/28 03:45:43;;;;;;;12.60;3.55;;;;;;;7.47;100.00;95915.59;5018417;28;20405;-81
2023/10/28 03:48:09;;;;;;;11.20;3.80;;;;;;;7.49;100.00;95910.06;5017131;28;20789;-81
2023/10/28 03:50:36;;;;;;;9.32;3.38;;;;;;;7.51;100.00;95908.75;5016107;28;20439;-81
2023/10/28 03:53:02;;;;;;;18.25;4.68;;;;;;;7.52;100.00;95906.91;5016356;28;20462;-81
2023/10/28 03:55:30;;;;;;;12.70;3.70;;;;;;;7.53;100.00;95908.47;5017230;28;20473;-81
2023/10/28 03:57:56;;;;;;;12.50;4.30;;;;;;;7.50;100.00;95899.25;5022133;28;20435;-81
2023/10/28 04:00:22;;;;;;;9.27;3.30;;;;;;;7.48;100.00;95901.38;5018994;28;20392;-83
2023/10/28 04:02:49;;;;;;;8.18;3.08;;;;;;;7.46;100.00;95900.06;5019228;28;20400;-82
2023/10/28 04:05:16;;;;;;;7.78;2.83;;;;;;;7.46;100.00;95906.09;5015549;28;20817;-83
2023/10/28 04:07:44;;;;;;;7.55;3.00;;;;;;;7.49;100.00;95910.06;5015250;28;20482;-81
2023/10/28 04:10:10;;;;;;;10.88;3.40;;;;;;;7.52;100.00;95902.41;5015325;28;20401;-81
2023/10/28 04:12:38;;;;;;;7.57;3.10;;;;;;;7.55;100.00;95906.34;5014912;28;20424;-83
2023/10/28 04:15:05;;;;;;;7.22;3.10;;;;;;;7.53;100.00;95906.63;5015872;28;20404;-81
2023/10/28 04:17:31;;;;;;;8.60;2.70;;;;;;;7.55;100.00;95911.63;5015946;28;20429;-81
2023/10/28 04:19:59;;;;;;;11.27;3.50;;;;;;;7.58;100.00;95906.63;5015262;28;20405;-82
2023/10/28 04:22:25;;;;;;;7.18;2.90;;;;;;;7.64;100.00;95908.19;5015579;28;20913;-83
2023/10/28 04:24:51;;;;;;;12.52;3.63;;;;;;;7.63;100.00;95906.59;5016342;28;20432;-82
2023/10/28 04:27:17;;;;;;;7.05;3.15;;;;;;;7.62;100.00;95906.84;5015801;28;20469;-82
2023/10/28 04:29:45;;;;;;;12.82;3.22;;;;;;;7.55;100.00;95901.88;5015868;28;20417;-83
2023/10/28 04:32:12;;;;;;;7.57;2.97;;;;;;;7.53;100.00;95903.97;5018290;28;20508;-83
2023/10/28 04:34:39;;;;;;;9.38;3.00;;;;;;;7.50;100.00;95917.69;5036555;28;20454;-82
2023/10/28 04:37:06;;;;;;;5.65;2.47;;;;;;;7.48;100.00;95911.13;5038417;28;20409;-82
2023/10/28 04:39:32;;;;;;;11.85;3.35;;;;;;;7.45;100.00;95915.06;5037147;28;20402;-84
2023/10/28 04:41:58;;;;;;;7.10;2.90;;;;;;;7.45;100.00;95916.91;5037502;28;20407;-84
2023/10/28 04:44:24;;;;;;;7.88;2.70;;;;;;;7.42;100.00;95907.72;5026282;28;20401;-83
2023/10/28 04:46:51;;;;;;;6.78;2.70;;;;;;;7.41;100.00;95915.88;5018215;28;20405;-84
2023/10/28 04:49:18;;;;;;;5.80;2.55;;;;;;;7.37;100.00;95900.59;5018528;28;20401;-85
2023/10/28 04:51:44;;;;;;;3.80;2.08;;;;;;;7.36;100.00;95906.16;5020288;28;20805;-85
2023/10/28 04:54:10;;;;;;;5.30;2.30;;;;;;;7.35;100.00;95912.47;5024504;28;20433;-85
2023/10/28 04:56:37;;;;;;;9.77;3.17;;;;;;;7.32;100.00;95913.78;5028059;28;20447;-85
2023/10/28 04:59:03;;;;;;;5.53;2.70;;;;;;;7.34;100.00;95905.63;5021766;28;20407;-84
2023/10/28 05:01:29;;;;;;;4.68;2.30;;;;;;;7.30;100.00;95917.72;5020080;28;20405;-84
2023/10/28 05:03:57;;;;;;;5.40;2.50;;;;;;;7.26;100.00;95914.06;5020497;28;20401;-84
2023/10/28 05:06:24;;;;;;;8.07;2.70;;;;;;;7.25;100.00;95913.25;5020439;28;20444;-84
2023/10/28 05:08:50;;;;;;;7.40;2.85;;;;;;;7.25;100.00;95915.88;5019759;28;20466;-84
2023/10/28 05:11:16;;;;;;;10.77;3.10;;;;;;;7.27;100.00;95916.41;5019959;28;20413;-83
2023/10/28 05:13:43;;;;;;;15.80;3.30;;;;;;;7.27;100.00;95902.47;5019581;28;20754;-84
2023/10/28 05:16:12;;;;;;;8.02;2.95;;;;;;;7.31;100.00;95920.09;5019240;28;20396;-83
2023/10/28 05:18:38;;;;;;;10.93;3.70;;;;;;;7.32;100.00;95905.09;5019301;28;20448;-83
2023/10/28 05:21:06;;;;;;;6.15;2.63;;;;;;;7.29;100.00;95901.13;5024419;28;20404;-83
2023/10/28 05:23:32;;;;;;;6.15;2.20;;;;;;;7.26;100.00;95893.00;5024264;28;20416;-83
2023/10/28 05:25:58;;;;;;;7.05;2.70;;;;;;;7.23;100.00;95898.78;5029550;28;20451;-82
2023/10/28 05:28:24;;;;;;;8.38;2.53;;;;;;;7.21;100.00;95903.53;5029133;28;20396;-81
2023/10/28 05:30:50;;;;;;;5.80;2.15;;;;;;;7.18;100.00;95904.06;5020465;28;20798;-81
2023/10/28 05:33:16;;;;;;;4.10;2.13;;;;;;;7.14;100.00;95897.75;5019832;28;20501;-81
2023/10/28 05:35:42;;;;;;;12.23;2.90;;;;;;;7.09;100.00;95903.00;5020967;28;20401;-82
2023/10/28 05:38:10;;;;;;;7.60;2.70;;;;;;;7.11;100.00;95912.22;5020406;28;20451;-82
2023/10/28 05:40:36;;;;;;;5.68;2.55;;;;;;;7.14;100.00;95906.41;5019532;28;20405;-83
2023/10/28 05:43:03;;;;;;;6.68;2.70;;;;;;;7.15;100.00;95910.63;5020976;28;20444;-84
2023/10/28 05:45:29;;;;;;;9.52;2.95;;;;;;;7.17;100.00;95921.69;5021748;28;20491;-83
2023/10/28 05:47:55;;;;;;;6.63;2.50;;;;;;;7.17;100.00;95926.16;5019667;28;20401;-83
2023/10/28 05:50:21;;;;;;;6.32;2.58;;;;;;;7.17;100.00;95934.06;5019902;28;20419;-84
2023/10/28 05:52:47;;;;;;;8.23;2.55;;;;;;;7.15;100.00;95942.22;5020161;28;20762;-83
2023/10/28 05:55:15;;;;;;;3.92;2.10;;;;;;;7.13;100.00;95941.69;5019255;28;20397;-83
2023/10/28 05:57:41;;;;;;;4.30;2.10;;;;;;;7.10;100.00;95939.59;5021574;28;20496;-84
2023/10/28 06:00:10;;;;;;;14.52;3.10;;;;;;;7.05;100.00;95939.59;5018331;28;20404;-82
2023/10/28 06:02:36;;;;;;;4.00;2.30;;;;;;;7.08;100.00;95943.53;5019722;28;20451;-82
2023/10/28 06:05:03;;;;;;;10.85;3.03;;;;;;;7.12;100.00;95939.31;5018897;28;20413;-83
2023/10/28 06:07:30;;;;;;;5.18;2.22;;;;;;;7.15;100.00;95950.09;5020323;28;20400;-83
2023/10/28 06:09:56;;;;;;;5.57;2.40;;;;;;;7.17;100.00;95944.56;5024058;28;20381;-81
2023/10/28 06:12:25;;;;;;;4.75;2.25;;;;;;;7.17;100.00;95955.91;5024126;28;20416;-82
2023/10/28 06:14:51;;;;;;;3.10;2.00;;;;;;;7.17;100.00;95947.22;5024551;28;20401;-82
2023/10/28 06:17:17;;;;;;;3.80;2.17;;;;;;;7.19;100.00;95951.16;5025372;28;20431;-81
2023/10/28 06:19:43;;;;;;;4.15;2.10;;;;;;;7.19;100.00;95953.00;5024870;28;20723;-82
2023/10/28 06:22:13;;;;;;;9.90;2.63;;;;;;;7.19;100.00;95958.28;5025478;28;20397;-81
2023/10/28 06:24:39;;;;;;;4.90;2.30;;;;;;;7.22;100.00;95960.34;5027844;28;20885;-82
2023/10/28 06:27:05;;;;;;;4.13;2.00;;;;;;;7.24;100.00;95969.56;5026094;28;20652;-80
2023/10/28 06:29:33;;;;;;;3.90;2.05;;;;;;;7.29;100.00;95974.06;5025701;28;20412;-81
2023/10/28 06:31:59;;;;;;;2.93;2.07;;;;;;;7.34;100.00;95982.75;5026017;28;20479;-81
2023/10/28 06:34:28;;;;;;;6.78;2.38;;;;;;;7.38;100.00;95975.88;5031235;28;20417;-81
2023/10/28 06:36:55;;;;;;;5.38;2.00;;;;;;;7.45;100.00;95980.88;5028489;28;20755;-81
2023/10/28 06:39:21;;;;;;;2.95;1.80;;;;;;;7.48;100.00;95979.56;5033220;28;20399;-81
2023/10/28 06:41:47;;;;;;;15.02;3.05;;;;;;;7.44;100.00;95981.94;5022425;28;20401;-82
2023/10/28 06:44:13;;;;;;;5.83;2.70;;;;;;;7.49;100.00;95986.41;5019887;28;20489;-81
2023/10/28 06:46:41;;;;;;;8.90;2.97;;;;;;;7.53;100.00;95980.34;5023083;28;20397;-83
2023/10/28 06:49:08;;;;;;;11.40;3.38;;;;;;;7.54;100.00;95983.75;5022352;28;20751;-82
2023/10/28 06:51:35;;;;;;;4.32;2.40;;;;;;;7.58;100.00;95990.09;5025613;28;20422;-81
2023/10/28 06:54:02;;;;;;;3.78;1.95;;;;;;;7.57;100.00;95994.56;5024856;28;20425;-80
2023/10/28 06:56:28;;;;;;;2.80;1.75;;;;;;;7.56;100.00;95997.47;5019521;28;20416;-80
2023/10/28 06:58:55;;;;;;;9.45;2.58;;;;;;;7.54;100.00;96002.97;5019598;28;20581;-78
2023/10/28 07:01:21;;;;;;;4.68;2.10;;;;;;;7.53;100.00;96003.25;5022553;28;20409;-80
2023/10/28 07:03:49;;;;;;;8.00;2.20;;;;;;;7.54;100.00;95999.56;5024785;28;20565;-80
2023/10/28 07:06:16;;;;;;;3.25;1.88;;;;;;;7.62;100.00;96014.81;5021592;28;20411;-80
2023/10/28 07:08:42;;;;;;;5.28;2.08;;;;;;;7.77;100.00;96018.22;5020345;28;20419;-79
2023/10/28 07:11:11;;;;;;;2.60;1.77;;;;;;;7.94;100.00;96022.41;5021392;28;20464;-80
2023/10/28 07:13:37;;;;;;;5.35;1.92;;;;;;;8.07;100.00;96019.22;5026780;28;20421;-79
2023/10/28 07:16:04;;;;;;;2.75;1.70;;;;;;;8.14;100.00;96009.16;5007221;28;20405;-79
2023/10/28 07:18:30;;;;;;;3.13;1.40;;;;;;;8.18;100.00;96014.72;5000921;28;20401;-81
2023/10/28 07:20:58;;;;;;;4.80;1.92;;;;;;;8.21;100.00;96019.44;5018668;28;20412;-78
2023/10/28 07:23:27;;;;;;;4.75;1.73;;;;;;;8.26;100.00;96016.78;5018527;28;20909;-84
2023/10/28 07:25:54;;;;;;;5.07;1.80;;;;;;;8.35;100.00;96018.59;5019784;28;20400;-82
2023/10/28 07:28:20;;;;;;;5.23;2.00;;;;;;;8.47;100.00;96034.94;5018363;28;20401;-80
2023/10/28 07:30:48;;;;;;;4.15;1.60;;;;;;;8.58;100.00;96030.38;5015269;28;20402;-80
2023/10/28 07:33:14;;;;;;;8.73;2.00;;;;;;;8.67;100.00;96038.50;5005438;28;20457;-81
2023/10/28 07:35:44;;;;;;;10.35;2.05;;;;;;;8.70;100.00;96048.53;5020911;28;20401;-80
2023/10/28 07:38:12;;;;;;;9.45;2.00;;;;;;;8.83;100.00;96037.38;5019674;28;20405;-82
2023/10/28 07:40:39;;;;;;;6.40;1.58;;;;;;;8.91;100.00;96034.16;5018750;28;20716;-81
2023/10/28 07:43:05;;;;;;;4.13;1.80;;;;;;;8.97;100.00;96042.84;5011257;28;20407;-82
2023/10/28 07:45:33;;;;;;;11.63;2.35;;;;;;;8.77;100.00;96044.53;5022013;28;20424;-83
2023/10/28 07:47:59;;;;;;;4.15;1.77;;;;;;;9.00;100.00;96043.09;5046573;28;20402;-79
2023/10/28 07:50:25;;;;;;;8.57;1.77;;;;;;;9.11;100.00;96041.16;5050397;28;20391;-81
2023/10/28 07:52:51;;;;;;;3.60;1.45;;;;;;;9.25;100.00;96048.19;5048880;28;20779;-85
2023/10/28 07:55:19;;;;;;;9.23;1.73;;;;;;;9.27;100.00;96051.34;5043564;28;20408;-80
2023/10/28 07:57:45;;;;;;;2.70;1.50;;;;;;;9.46;100.00;96063.91;5043388;28;20396;-82
2023/10/28 08:00:13;;;;;;;8.50;1.85;;;;;;;9.52;100.00;96063.59;5028948;28;20405;-81
2023/10/28 08:02:44;;;;;;;2.85;1.40;;;;;;;9.56;100.00;96061.16;5022818;28;20876;-80
2023/10/28 08:05:10;;;;;;;12.67;2.37;;;;;;;9.57;100.00;96062.75;5021029;28;20437;-80
2023/10/28 08:07:37;;;;;;;6.75;1.90;;;;;;;9.66;100.00;96071.66;5019690;28;20539;-82
2023/10/28 08:10:04;;;;;;;5.10;2.10;;;;;;;9.67;100.00;96068.75;5018353;28;20423;-80
2023/10/28 08:12:31;;;;;;;4.40;1.37;;;;;;;9.92;100.00;96057.16;5020767;28;20421;-81
2023/10/28 08:15:00;;;;;;;6.40;1.60;;;;;;;9.92;100.00;96070.38;5020196;28;20396;-81
2023/10/28 08:17:27;;;;;;;5.87;1.80;;;;;;;10.19;100.00;96074.38;5021902;28;20469;-81
2023/10/28 08:19:53;;;;;;;3.47;1.63;;;;;;;10.37;100.00;96074.47;5021899;28;20817;-80
2023/10/28 08:22:19;;;;;;;6.63;1.75;;;;;;;10.48;100.00;96083.06;5028733;28;20432;-80
2023/10/28 08:24:46;;;;;;;4.90;1.43;;;;;;;10.71;100.00;96082.25;5022771;28;20419;-80
2023/10/28 08:27:12;;;;;;;4.60;1.30;;;;;;;10.97;100.00;96077.44;5024475;28;20408;-80
2023/10/28 08:29:40;;;;;;;3.58;1.50;;;;;;;10.90;100.00;96079.63;5027096;28;20439;-80
2023/10/28 08:32:06;;;;;;;7.20;1.60;;;;;;;10.83;100.00;96077.34;5029915;28;20428;-81
2023/10/28 08:34:33;;;;;;;5.43;1.40;;;;;;;10.88;100.00;96088.94;5048116;28;20446;-81
2023/10/28 08:36:59;;;;;;;7.85;1.80;;;;;;;10.92;100.00;96088.09;5047732;28;20826;-80
2023/10/28 08:39:26;;;;;;;3.50;1.35;;;;;;;11.21;100.00;96072.06;5047621;28;20926;-81
2023/10/28 08:41:53;;;;;;;5.28;1.50;;;;;;;11.49;100.00;96078.31;5047823;28;20490;-82
2023/10/28 08:44:27;;;;;;;4.53;1.30;;;;;;;11.66;100.00;96078.53;5036576;28;20479;-81
2023/10/28 08:46:55;;;;;;;2.88;1.48;;;;;;;11.87;100.00;96085.16;5031730;28;20397;-80
2023/10/28 08:49:23;;;;;;;3.30;1.50;;;;;;;12.09;100.00;96076.53;5028208;28;20404;-79
2023/10/28 08:51:53;;;;;;;1.90;1.00;;;;;;;12.25;100.00;96077.06;5031700;28;20419;-80
2023/10/28 08:54:20;;;;;;;1.52;0.90;;;;;;;12.35;100.00;96077.66;5033776;28;20413;-79
2023/10/28 08:56:47;;;;;;;2.00;1.10;;;;;;;12.31;100.00;96081.19;5032942;28;20415;-80
2023/10/28 08:59:13;;;;;;;2.53;1.20;;;;;;;12.11;100.00;96082.31;5031427;28;20439;-80
2023/10/28 09:01:40;;;;;;;3.08;1.20;;;;;;;11.98;100.00;96091.84;5029008;28;20397;-80
2023/10/28 09:04:08;;;;;;;2.58;1.38;;;;;;;11.99;100.00;96089.97;5028333;28;20416;-81
2023/10/28 09:06:34;;;;;;;4.20;1.50;;;;;;;12.03;100.00;96096.25;5028796;28;20406;-81
2023/10/28 09:09:02;;;;;;;4.27;1.40;;;;;;;12.11;100.00;96097.44;5029004;28;20477;-80
2023/10/28 09:11:28;;;;;;;4.00;1.30;;;;;;;12.09;100.00;96095.13;5027067;28;20405;-81
2023/10/28 09:13:56;;;;;;;3.85;1.52;;;;;;;12.31;100.00;96083.84;5026568;28;20516;-80
2023/10/28 09:16:24;;;;;;;7.07;1.60;;;;;;;12.21;100.00;96095.44;5027154;28;20404;-80
2023/10/28 09:18:50;;;;;;;3.65;1.40;;;;;;;12.11;100.00;96092.94;5025670;28;20401;-80
2023/10/28 09:21:19;;;;;;;6.97;1.65;;;;;;;12.01;100.00;96109.03;5025995;28;20872;-81
2023/10/28 09:23:45;;;;;;;3.73;1.17;;;;;;;12.18;100.00;96100.53;5026109;28;20504;-80
2023/10/28 09:26:11;;;;;;;1.60;1.00;;;;;;;12.41;100.00;96096.91;5025989;28;20401;-80
2023/10/28 09:28:44;;;;;;;5.93;1.90;;;;;;;12.27;100.00;96082.84;5025782;28;20407;-79
2023/10/28 09:31:10;;;;;;;4.20;1.38;;;;;;;12.31;100.00;96081.19;5025247;28;20415;-80
2023/10/28 09:33:37;;;;;;;3.60;1.30;;;;;;;12.30;100.00;96079.63;5040669;28;20476;-80
2023/10/28 09:36:04;;;;;;;4.25;1.25;;;;;;;12.32;100.00;96088.06;5046194;28;20402;-80
2023/10/28 09:38:32;;;;;;;3.90;1.50;;;;;;;12.54;100.00;96104.13;5047114;28;20426;-80
2023/10/28 09:41:01;;;;;;;5.25;1.55;;;;;;;12.80;100.00;96097.22;5044979;28;20391;-79
2023/10/28 09:43:30;;;;;;;2.55;1.40;;;;;;;13.21;100.00;96101.72;5042671;28;20447;-80
2023/10/28 09:45:56;;;;;;;10.75;1.98;;;;;;;13.12;100.00;96101.63;5026962;28;20424;-80
2023/10/28 09:48:26;;;;;;;4.55;1.70;;;;;;;12.96;100.00;96095.03;5028330;28;20407;-80
2023/10/28 09:50:55;;;;;;;3.65;1.33;;;;;;;12.77;100.00;96100.47;5026779;28;20400;-81
2023/10/28 09:53:31;;;;;;;3.85;1.20;;;;;;;12.84;100.00;96104.59;5027612;28;20416;-80
2023/10/28 09:56:00;;;;;;;5.40;1.40;;;;;;;12.86;100.00;96097.09;5027400;28;20408;-80
2023/10/28 09:58:32;;;;;;;4.03;1.52;;;;;;;13.07;100.00;96100.94;5027079;28;20487;-79
2023/10/28 10:01:14;;;;;;;4.00;1.20;;;;;;;13.43;100.00;96104.44;5026227;28;20491;-80
2023/10/28 10:03:54;;;;;;;2.75;1.20;;;;;;;14.05;100.00;96104.56;5026860;28;20431;-79
2023/10/28 10:06:21;;;;;;;5.28;1.27;;;;;;;14.17;100.00;96104.78;5026620;28;20393;-81
2023/10/28 10:08:49;;;;;;;2.60;1.02;;;;;;;14.40;100.00;96110.88;5025550;28;20400;-78
2023/10/28 10:11:21;;;;;;;3.10;1.30;;;;;;;14.58;100.00;96112.56;5021697;28;20412;-79
2023/10/28 10:13:47;;;;;;;2.78;0.98;;;;;;;14.71;100.00;96116.97;5022958;28;20515;-81
2023/10/28 10:16:23;;;;;;;4.28;1.63;;;;;;;14.71;100.00;96106.31;5038808;28;20406;-79
2023/10/28 10:18:53;;;;;;;6.85;1.60;;;;;;;14.45;100.00;96100.09;5022261;28;20393;-80
2023/10/28 10:21:19;;;;;;;2.42;1.00;;;;;;;14.48;100.00;96101.38;5031563;28;20798;-80
2023/10/28 10:23:54;;;;;;;3.50;1.23;;;;;;;14.19;100.00;96117.78;5021680;28;20423;-80
2023/10/28 10:26:25;;;;;;;6.07;1.58;;;;;;;13.82;100.00;96118.97;5033324;28;20409;-79
2023/10/28 10:28:53;;;;;;;3.80;1.10;;;;;;;13.74;100.00;96115.16;5028216;28;20395;-79
2023/10/28 10:31:22;;;;;;;6.35;1.40;;;;;;;13.48;100.00;96124.78;5040426;28;20391;-80
2023/10/28 10:34:01;;;;;;;5.03;1.20;;;;;;;13.41;100.00;96122.53;5026632;28;20494;-81
2023/10/28 10:36:30;;;;;;;8.52;1.95;;;;;;;13.09;100.00;96115.47;5037326;28;20417;-80
2023/10/28 10:39:10;;;;;;;9.25;2.60;;;;;;;12.89;100.00;96101.84;5047903;28;20391;-80
2023/10/28 10:41:39;;;;;;;6.05;1.65;;;;;;;12.95;100.00;96113.94;5046320;28;20947;-80
2023/10/28 10:44:24;;;;;;;8.05;1.88;;;;;;;13.16;100.00;96136.38;5011027;28;20410;-81
2023/10/28 10:46:53;;;;;;;5.93;1.73;;;;;;;13.15;100.00;96127.63;5029731;28;20759;-80
2023/10/28 10:49:19;;;;;;;3.27;1.30;;;;;;;13.41;100.00;96133.16;5032629;28;20395;-80
2023/10/28 10:51:46;;;;;;;1.85;1.10;;;;;;;13.55;100.00;96133.13;5023054;28;20402;-80
2023/10/28 10:54:12;;;;;;;7.32;1.58;;;;;;;13.82;100.00;96124.28;5034540;28;20420;-80
2023/10/28 10:56:40;;;;;;;9.27;1.50;;;;;;;13.98;100.00;96132.69;5028460;28;20435;-80
2023/10/28 10:59:06;;;;;;;3.85;1.55;;;;;;;13.82;100.00;96119.75;5038749;28;20399;-80
2023/10/28 11:01:32;;;;;;;5.05;1.65;;;;;;;13.68;100.00;96105.69;5024163;28;20444;-80
2023/10/28 11:03:58;;;;;;;4.55;2.00;;;;;;;13.55;100.00;96122.50;5023426;28;20468;-80
2023/10/28 11:06:25;;;;;;;7.33;1.70;;;;;;;13.32;100.00;96126.19;5034173;28;20922;-79
2023/10/28 11:08:51;;;;;;;9.47;2.00;;;;;;;13.03;100.00;96121.19;5030105;28;20398;-80
2023/10/28 11:11:19;;;;;;;6.90;1.90;;;;;;;12.93;100.00;96129.41;5038529;28;20399;-80
2023/10/28 11:13:46;;;;;;;4.40;1.50;;;;;;;12.76;100.00;96133.44;5021186;28;20813;-79
2023/10/28 11:16:22;;;;;;;5.57;1.30;;;;;;;12.64;100.00;96132.31;5041460;28;20399;-80
2023/10/28 11:18:48;;;;;;;5.88;1.50;;;;;;;12.54;100.00;96127.22;5041934;28;20400;-79
2023/10/28 11:21:15;;;;;;;5.38;1.70;;;;;;;12.48;100.00;96126.50;5042030;28;20490;-80
2023/10/28 11:23:41;;;;;;;3.38;1.33;;;;;;;12.45;100.00;96121.00;5022801;28;20400;-80
2023/10/28 11:26:08;;;;;;;7.72;2.50;;;;;;;12.41;100.00;96121.59;5023241;28;20399;-80
2023/10/28 11:28:38;;;;;;;8.90;2.30;;;;;;;12.38;100.00;96118.75;5028700;28;20429;-80